Time,TemperatureF,DewpointF,PressureIn,WindDirection,WindDirectionDegrees,WindSpeedMPH,WindSpeedGustMPH,Humidity,HourlyPrecipIn,Conditions,Clouds,dailyrainin,SoftwareType,DateUTC
2013-06-25 00:00:00,74.2,67.7,30.03,SW,225,0.4,2.5,80,0.00,,,0.05,WUHU216HW,2013-06-25 04:00:00,
2013-06-25 00:01:00,74.2,67.7,30.03,SW,225,0.9,2.5,80,0.00,,,0.00,WUHU216HW,2013-06-25 04:01:00,
2013-06-25 00:06:00,74.2,67.7,30.03,SW,225,0.0,1.8,80,0.00,,,0.00,WUHU216HW,2013-06-25 04:06:00,
2013-06-25 00:11:00,74.0,67.9,30.03,SW,225,0.0,1.3,81,0.00,,,0.00,WUHU216HW,2013-06-25 04:11:00,
2013-06-25 00:16:00,73.8,67.7,30.03,SW,225,0.7,1.1,81,0.00,,,0.00,WUHU216HW,2013-06-25 04:16:00,
2013-06-25 00:21:00,73.6,67.5,30.04,SSW,203,1.1,1.1,81,0.00,,,0.00,WUHU216HW,2013-06-25 04:21:00,
2013-06-25 00:26:00,73.4,67.7,30.04,ESE,113,0.9,1.1,82,0.00,,,0.00,WUHU216HW,2013-06-25 04:26:00,
2013-06-25 00:31:00,73.3,67.8,30.04,ENE,68,1.1,1.8,83,0.00,,,0.00,WUHU216HW,2013-06-25 04:31:00,
2013-06-25 00:36:00,73.1,67.6,30.04,ENE,68,0.0,1.8,83,0.00,,,0.00,WUHU216HW,2013-06-25 04:36:00,
2013-06-25 00:41:00,73.1,67.6,30.04,ENE,68,0.2,1.1,83,0.00,,,0.00,WUHU216HW,2013-06-25 04:41:00,
2013-06-25 00:46:00,73.1,67.6,30.04,ESE,113,0.0,0.4,83,0.00,,,0.00,WUHU216HW,2013-06-25 04:46:00,
2013-06-25 00:51:00,73.1,67.6,30.03,NNE,23,0.2,0.9,83,0.00,,,0.00,WUHU216HW,2013-06-25 04:51:00,
2013-06-25 00:56:00,73.1,67.6,30.03,SSW,203,0.0,1.6,83,0.00,,,0.00,WUHU216HW,2013-06-25 04:56:00,
2013-06-25 01:01:00,72.9,67.4,30.03,SSW,203,0.4,1.6,83,0.00,,,0.00,WUHU216HW,2013-06-25 05:01:00,
2013-06-25 01:06:00,72.9,67.4,30.03,SSW,203,0.0,0.7,83,0.00,,,0.00,WUHU216HW,2013-06-25 05:06:00,
2013-06-25 01:11:00,72.7,67.2,30.03,SSW,203,0.0,0.4,83,0.00,,,0.00,WUHU216HW,2013-06-25 05:11:00,
2013-06-25 01:16:00,72.7,67.2,30.03,SW,225,1.1,1.3,83,0.00,,,0.00,WUHU216HW,2013-06-25 05:16:00,
2013-06-25 01:21:00,72.7,67.2,30.03,SW,225,0.7,1.3,83,0.00,,,0.00,WUHU216HW,2013-06-25 05:21:00,
2013-06-25 01:26:00,72.7,67.2,30.03,SW,225,0.4,1.3,83,0.00,,,0.00,WUHU216HW,2013-06-25 05:26:00,
2013-06-25 01:31:00,72.5,67.1,30.03,SW,225,0.4,0.9,83,0.00,,,0.00,WUHU216HW,2013-06-25 05:31:00,
2013-06-25 01:36:00,72.4,66.9,30.03,SW,225,0.0,0.4,83,0.00,,,0.00,WUHU216HW,2013-06-25 05:36:00,
2013-06-25 01:41:00,72.5,67.4,30.03,SW,225,1.8,2.2,84,0.00,,,0.00,WUHU216HW,2013-06-25 05:41:00,
2013-06-25 01:46:00,72.7,67.6,30.03,SSW,203,0.4,3.4,84,0.00,,,0.00,WUHU216HW,2013-06-25 05:46:00,
2013-06-25 01:51:00,72.7,67.6,30.03,West,270,0.9,3.4,84,0.00,,,0.00,WUHU216HW,2013-06-25 05:51:00,
2013-06-25 01:56:00,72.7,67.6,30.03,SW,225,0.4,2.0,84,0.00,,,0.00,WUHU216HW,2013-06-25 05:56:00,
2013-06-25 02:01:00,72.7,67.6,30.03,SW,225,0.0,2.0,84,0.00,,,0.00,WUHU216HW,2013-06-25 06:01:00,
2013-06-25 02:06:00,72.5,67.4,30.03,SW,225,0.0,1.3,84,0.00,,,0.00,WUHU216HW,2013-06-25 06:06:00,
2013-06-25 02:11:00,72.5,67.4,30.02,SSW,203,0.0,0.7,84,0.00,,,0.00,WUHU216HW,2013-06-25 06:11:00,
2013-06-25 02:16:00,72.5,67.4,30.02,SSW,203,0.4,1.1,84,0.00,,,0.00,WUHU216HW,2013-06-25 06:16:00,
2013-06-25 02:21:00,72.4,67.6,30.02,SSW,203,0.0,1.1,85,0.00,,,0.00,WUHU216HW,2013-06-25 06:21:00,
2013-06-25 02:26:00,72.4,67.6,30.02,SSW,203,0.0,0.4,85,0.00,,,0.00,WUHU216HW,2013-06-25 06:26:00,
2013-06-25 02:31:00,72.4,67.6,30.02,SSW,203,0.0,0.4,85,0.00,,,0.00,WUHU216HW,2013-06-25 06:31:00,
2013-06-25 02:36:00,72.2,67.4,30.02,SSW,203,0.0,0.4,85,0.00,,,0.00,WUHU216HW,2013-06-25 06:36:00,
2013-06-25 02:41:00,72.0,67.2,30.02,SSW,203,0.0,0.4,85,0.00,,,0.00,WUHU216HW,2013-06-25 06:41:00,
2013-06-25 02:46:00,72.0,67.2,30.01,SSW,203,0.4,0.4,85,0.00,,,0.00,WUHU216HW,2013-06-25 06:46:00,
2013-06-25 02:51:00,71.8,67.1,30.01,SSW,203,0.0,1.8,85,0.00,,,0.00,WUHU216HW,2013-06-25 06:51:00,
2013-06-25 02:56:00,71.8,67.4,30.01,SSW,203,0.0,1.8,86,0.00,,,0.00,WUHU216HW,2013-06-25 06:56:00,
2013-06-25 03:01:00,71.8,67.4,30.01,SSW,203,0.0,1.1,86,0.00,,,0.00,WUHU216HW,2013-06-25 07:01:00,
2013-06-25 03:06:00,71.6,67.2,30.01,SSW,203,0.0,0.7,86,0.00,,,0.00,WUHU216HW,2013-06-25 07:06:00,
2013-06-25 03:11:00,71.6,67.2,30.01,SSW,203,0.4,1.8,86,0.00,,,0.00,WUHU216HW,2013-06-25 07:11:00,
2013-06-25 03:16:00,71.5,67.1,30.01,SSW,203,0.0,1.8,86,0.00,,,0.00,WUHU216HW,2013-06-25 07:16:00,
2013-06-25 03:21:00,71.3,67.2,30.01,SSW,203,0.0,0.4,87,0.00,,,0.00,WUHU216HW,2013-06-25 07:21:00,
2013-06-25 03:26:00,71.3,67.2,30.01,SSW,203,0.0,0.7,87,0.00,,,0.00,WUHU216HW,2013-06-25 07:26:00,
2013-06-25 03:31:00,71.1,67.1,30.01,SSW,203,0.2,0.7,87,0.00,,,0.00,WUHU216HW,2013-06-25 07:31:00,
2013-06-25 03:36:00,70.9,66.9,30.01,SSW,203,0.0,0.4,87,0.00,,,0.00,WUHU216HW,2013-06-25 07:36:00,
2013-06-25 03:41:00,70.9,66.9,30.01,SSW,203,0.0,0.7,87,0.00,,,0.00,WUHU216HW,2013-06-25 07:41:00,
2013-06-25 03:46:00,70.7,66.7,30.01,SSW,203,0.2,0.7,87,0.00,,,0.00,WUHU216HW,2013-06-25 07:46:00,
2013-06-25 03:51:00,70.7,67.0,30.01,SSW,203,0.0,0.4,88,0.00,,,0.00,WUHU216HW,2013-06-25 07:51:00,
2013-06-25 03:56:00,70.6,66.8,30.01,SSW,203,0.0,0.4,88,0.00,,,0.00,WUHU216HW,2013-06-25 07:56:00,
2013-06-25 04:01:00,70.6,66.8,30.00,SSW,203,0.7,0.9,88,0.00,,,0.00,WUHU216HW,2013-06-25 08:01:00,
2013-06-25 04:06:00,70.6,66.8,30.00,SSW,203,0.0,0.9,88,0.00,,,0.00,WUHU216HW,2013-06-25 08:06:00,
2013-06-25 04:11:00,70.6,66.8,30.00,SSW,203,1.8,2.0,88,0.00,,,0.00,WUHU216HW,2013-06-25 08:11:00,
2013-06-25 04:16:00,70.6,67.1,30.00,SSW,203,1.1,2.0,89,0.00,,,0.00,WUHU216HW,2013-06-25 08:16:00,
2013-06-25 04:21:00,70.4,67.0,30.00,SSW,203,1.3,1.6,89,0.00,,,0.00,WUHU216HW,2013-06-25 08:21:00,
2013-06-25 04:26:00,70.2,66.8,30.00,SSW,203,0.7,1.8,89,0.00,,,0.00,WUHU216HW,2013-06-25 08:26:00,
2013-06-25 04:31:00,70.2,66.8,30.00,SSW,203,0.0,1.8,89,0.00,,,0.00,WUHU216HW,2013-06-25 08:31:00,
2013-06-25 04:36:00,70.2,66.8,30.00,SSW,203,0.0,0.7,89,0.00,,,0.00,WUHU216HW,2013-06-25 08:36:00,
2013-06-25 04:41:00,70.0,66.6,30.01,SSW,203,0.2,0.7,89,0.00,,,0.00,WUHU216HW,2013-06-25 08:41:00,
2013-06-25 04:46:00,69.8,66.4,30.00,SSW,203,0.0,0.7,89,0.00,,,0.00,WUHU216HW,2013-06-25 08:46:00,
2013-06-25 04:51:00,69.8,66.4,30.01,SSW,203,0.2,0.2,89,0.00,,,0.00,WUHU216HW,2013-06-25 08:51:00,
2013-06-25 04:56:00,69.8,66.4,30.00,SSW,203,1.1,1.6,89,0.00,,,0.00,WUHU216HW,2013-06-25 08:56:00,
2013-06-25 05:01:00,69.7,66.2,30.00,SSW,203,0.0,1.6,89,0.00,,,0.00,WUHU216HW,2013-06-25 09:01:00,
2013-06-25 05:06:00,69.5,66.1,30.00,SSW,203,0.0,1.1,89,0.00,,,0.00,WUHU216HW,2013-06-25 09:06:00,
2013-06-25 05:11:00,69.5,66.1,30.00,SSW,203,0.0,0.0,89,0.00,,,0.00,WUHU216HW,2013-06-25 09:11:00,
2013-06-25 05:16:00,69.5,66.4,30.00,SSW,203,0.0,0.0,90,0.00,,,0.00,WUHU216HW,2013-06-25 09:16:00,
2013-06-25 05:21:00,69.5,66.4,30.00,SSW,203,0.0,0.2,90,0.00,,,0.00,WUHU216HW,2013-06-25 09:21:00,
2013-06-25 05:26:00,69.5,66.4,30.01,SSW,203,0.2,0.2,90,0.00,,,0.00,WUHU216HW,2013-06-25 09:26:00,
2013-06-25 05:32:00,69.5,66.4,30.00,SSW,203,0.4,0.4,90,0.00,,,0.00,WUHU216HW,2013-06-25 09:32:00,
2013-06-25 05:37:00,69.5,66.4,30.00,SSW,203,0.4,1.3,90,0.00,,,0.00,WUHU216HW,2013-06-25 09:37:00,
2013-06-25 05:42:00,69.7,66.9,30.01,SSW,203,0.2,1.3,91,0.00,,,0.00,WUHU216HW,2013-06-25 09:42:00,
2013-06-25 05:47:00,69.7,66.9,30.00,SSW,203,0.2,1.8,91,0.00,,,0.00,WUHU216HW,2013-06-25 09:47:00,
2013-06-25 05:52:00,69.8,67.1,30.01,SSW,203,0.0,1.8,91,0.00,,,0.00,WUHU216HW,2013-06-25 09:52:00,
2013-06-25 05:57:00,69.8,67.1,30.01,SSW,203,0.0,0.4,91,0.00,,,0.00,WUHU216HW,2013-06-25 09:57:00,
2013-06-25 06:02:00,69.8,67.1,30.01,SSW,203,0.7,1.1,91,0.00,,,0.00,WUHU216HW,2013-06-25 10:02:00,
2013-06-25 06:07:00,69.8,67.1,30.01,SSW,203,0.7,1.1,91,0.00,,,0.00,WUHU216HW,2013-06-25 10:07:00,
2013-06-25 06:12:00,69.8,67.1,30.01,SSE,158,0.2,1.6,91,0.00,,,0.00,WUHU216HW,2013-06-25 10:12:00,
2013-06-25 06:17:00,70.0,67.2,30.01,SSE,158,0.0,1.6,91,0.00,,,0.00,WUHU216HW,2013-06-25 10:17:00,
2013-06-25 06:22:00,70.0,67.2,30.01,SSW,203,0.2,1.1,91,0.00,,,0.00,WUHU216HW,2013-06-25 10:22:00,
2013-06-25 06:27:00,70.2,67.4,30.01,SSW,203,0.2,1.1,91,0.00,,,0.00,WUHU216HW,2013-06-25 10:27:00,
2013-06-25 06:32:00,70.2,67.4,30.01,SSW,203,0.9,2.2,91,0.00,,,0.00,WUHU216HW,2013-06-25 10:32:00,
2013-06-25 06:37:00,70.4,67.6,30.01,SSW,203,0.7,2.5,91,0.00,,,0.00,WUHU216HW,2013-06-25 10:37:00,
2013-06-25 06:42:00,70.7,68.0,30.01,SW,225,1.8,4.0,91,0.00,,,0.00,WUHU216HW,2013-06-25 10:42:00,
2013-06-25 06:47:00,70.9,68.1,30.01,SSW,203,1.1,4.0,91,0.00,,,0.00,WUHU216HW,2013-06-25 10:47:00,
2013-06-25 06:52:00,70.9,68.1,30.02,SW,225,1.8,2.7,91,0.00,,,0.00,WUHU216HW,2013-06-25 10:52:00,
2013-06-25 06:57:00,71.1,68.3,30.02,SW,225,1.8,3.1,91,0.00,,,0.00,WUHU216HW,2013-06-25 10:57:00,
2013-06-25 07:02:00,71.3,68.5,30.02,WSW,248,2.5,3.1,91,0.00,,,0.00,WUHU216HW,2013-06-25 11:02:00,
2013-06-25 07:07:00,71.5,68.7,30.02,WSW,248,1.3,4.0,91,0.00,,,0.00,WUHU216HW,2013-06-25 11:07:00,
2013-06-25 07:12:00,71.6,68.9,30.02,SSW,203,2.2,4.0,91,0.00,,,0.00,WUHU216HW,2013-06-25 11:12:00,
2013-06-25 07:17:00,71.6,68.9,30.02,SW,225,1.1,3.4,91,0.00,,,0.00,WUHU216HW,2013-06-25 11:17:00,
2013-06-25 07:22:00,71.8,69.0,30.03,SSW,203,0.9,2.2,91,0.00,,,0.00,WUHU216HW,2013-06-25 11:22:00,
2013-06-25 07:27:00,72.0,69.2,30.03,WSW,248,0.4,2.0,91,0.00,,,0.00,WUHU216HW,2013-06-25 11:27:00,
2013-06-25 07:32:00,72.2,69.4,30.03,SW,225,1.3,3.8,91,0.00,,,0.00,WUHU216HW,2013-06-25 11:32:00,
2013-06-25 07:37:00,72.2,69.1,30.03,WSW,248,2.0,4.5,90,0.00,,,0.00,WUHU216HW,2013-06-25 11:37:00,
2013-06-25 07:42:00,72.4,69.3,30.03,SW,225,1.8,4.5,90,0.00,,,0.00,WUHU216HW,2013-06-25 11:42:00,
2013-06-25 07:47:00,72.9,69.8,30.03,SW,225,1.1,4.0,90,0.00,,,0.00,WUHU216HW,2013-06-25 11:47:00,
2013-06-25 07:52:00,73.1,70.0,30.03,SW,225,2.5,4.0,90,0.00,,,0.00,WUHU216HW,2013-06-25 11:52:00,
2013-06-25 07:57:00,73.4,70.4,30.03,SW,225,3.4,4.0,90,0.00,,,0.00,WUHU216HW,2013-06-25 11:57:00,
2013-06-25 08:02:00,73.4,70.0,30.04,SW,225,2.2,3.8,89,0.00,,,0.00,WUHU216HW,2013-06-25 12:02:00,
2013-06-25 08:07:00,73.3,69.8,30.04,SSW,203,2.9,3.8,89,0.00,,,0.00,WUHU216HW,2013-06-25 12:07:00,
2013-06-25 08:12:00,73.1,69.7,30.04,NW,315,1.1,4.0,89,0.00,,,0.00,WUHU216HW,2013-06-25 12:12:00,
2013-06-25 08:17:00,73.4,70.0,30.04,WSW,248,1.6,4.0,89,0.00,,,0.00,WUHU216HW,2013-06-25 12:17:00,
2013-06-25 08:22:00,74.0,70.6,30.04,SSW,203,4.0,5.1,89,0.00,,,0.00,WUHU216HW,2013-06-25 12:22:00,
2013-06-25 08:27:00,74.3,70.9,30.04,SW,225,2.9,5.1,89,0.00,,,0.00,WUHU216HW,2013-06-25 12:27:00,
2013-06-25 08:32:00,74.7,71.3,30.04,SSW,203,2.2,3.6,89,0.00,,,0.00,WUHU216HW,2013-06-25 12:32:00,
2013-06-25 08:37:00,75.1,71.0,30.04,SSE,158,2.2,4.7,87,0.00,,,0.00,WUHU216HW,2013-06-25 12:37:00,
2013-06-25 08:42:00,75.2,71.2,30.04,SW,225,1.8,4.7,87,0.00,,,0.00,WUHU216HW,2013-06-25 12:42:00,
2013-06-25 08:47:00,75.6,71.5,30.04,SW,225,1.1,3.4,87,0.00,,,0.00,WUHU216HW,2013-06-25 12:47:00,
2013-06-25 08:52:00,76.0,71.2,30.03,SW,225,2.2,3.8,85,0.00,,,0.00,WUHU216HW,2013-06-25 12:52:00,
2013-06-25 08:57:00,76.0,71.2,30.03,West,270,3.4,3.8,85,0.00,,,0.00,WUHU216HW,2013-06-25 12:57:00,
2013-06-25 09:02:00,76.1,71.3,30.03,SW,225,3.1,3.6,85,0.00,,,0.00,WUHU216HW,2013-06-25 13:02:00,
2013-06-25 09:07:00,76.7,71.5,30.04,West,270,2.2,4.7,84,0.00,,,0.00,WUHU216HW,2013-06-25 13:07:00,
2013-06-25 09:12:00,77.4,72.2,30.04,WSW,248,2.0,4.7,84,0.00,,,0.00,WUHU216HW,2013-06-25 13:12:00,
2013-06-25 09:17:00,78.5,72.5,30.04,SSW,203,5.6,5.6,82,0.00,,,0.00,WUHU216HW,2013-06-25 13:17:00,
2013-06-25 09:22:00,79.6,72.9,30.03,WSW,248,2.7,5.6,80,0.00,,,0.00,WUHU216HW,2013-06-25 13:22:00,
2013-06-25 09:27:00,79.9,72.5,30.03,WSW,248,2.9,5.4,78,0.00,,,0.00,WUHU216HW,2013-06-25 13:27:00,
2013-06-25 09:32:00,81.0,73.2,30.04,WSW,248,3.4,5.1,77,0.00,,,0.00,WUHU216HW,2013-06-25 13:32:00,
2013-06-25 09:37:00,81.4,72.7,30.04,SSW,203,2.2,5.6,75,0.00,,,0.00,WUHU216HW,2013-06-25 13:37:00,
2013-06-25 09:42:00,81.7,73.5,30.04,WSW,248,2.9,5.6,76,0.00,,,0.00,WUHU216HW,2013-06-25 13:42:00,
2013-06-25 09:47:00,82.3,73.5,30.04,WSW,248,2.0,3.8,75,0.00,,,0.00,WUHU216HW,2013-06-25 13:47:00,
2013-06-25 09:52:00,82.8,73.3,30.04,West,270,3.4,3.8,73,0.00,,,0.00,WUHU216HW,2013-06-25 13:52:00,
2013-06-25 09:57:00,82.8,73.3,30.04,SSW,203,2.9,5.1,73,0.00,,,0.00,WUHU216HW,2013-06-25 13:57:00,
2013-06-25 10:02:00,83.0,72.6,30.04,WSW,248,4.0,5.1,71,0.00,,,0.00,WUHU216HW,2013-06-25 14:02:00,
2013-06-25 10:07:00,82.8,72.5,30.04,SW,225,4.7,5.1,71,0.00,,,0.00,WUHU216HW,2013-06-25 14:07:00,
2013-06-25 10:12:00,83.3,72.5,30.03,NNW,338,4.0,5.1,70,0.00,,,0.00,WUHU216HW,2013-06-25 14:12:00,
2013-06-25 10:17:00,83.2,71.5,30.03,WSW,248,4.5,6.7,68,0.00,,,0.00,WUHU216HW,2013-06-25 14:17:00,
2013-06-25 10:22:00,83.3,72.5,30.03,WNW,293,2.5,6.7,70,0.00,,,0.00,WUHU216HW,2013-06-25 14:22:00,
2013-06-25 10:27:00,84.1,72.8,30.03,SSW,203,2.5,4.5,69,0.00,,,0.00,WUHU216HW,2013-06-25 14:27:00,
2013-06-25 10:32:00,84.6,72.5,30.03,West,270,2.5,5.4,67,0.00,,,0.00,WUHU216HW,2013-06-25 14:32:00,
2013-06-25 10:37:00,84.6,72.9,30.03,WSW,248,1.8,5.4,68,0.00,,,0.00,WUHU216HW,2013-06-25 14:37:00,
2013-06-25 10:42:00,85.3,72.7,30.03,SW,225,4.0,6.5,66,0.00,,,0.00,WUHU216HW,2013-06-25 14:42:00,
2013-06-25 10:47:00,85.1,72.0,30.03,West,270,4.0,6.5,65,0.00,,,0.00,WUHU216HW,2013-06-25 14:47:00,
2013-06-25 10:52:00,85.5,72.8,30.03,SW,225,4.7,6.3,66,0.00,,,0.00,WUHU216HW,2013-06-25 14:52:00,
2013-06-25 10:57:00,86.4,72.3,30.03,WSW,248,5.4,8.3,63,0.00,,,0.00,WUHU216HW,2013-06-25 14:57:00,
2013-06-25 11:02:00,86.0,71.0,30.03,West,270,4.5,10.1,61,0.00,,,0.00,WUHU216HW,2013-06-25 15:02:00,
2013-06-25 11:07:00,85.5,70.1,30.03,SW,225,5.1,10.1,60,0.00,,,0.00,WUHU216HW,2013-06-25 15:07:00,
2013-06-25 11:12:00,85.7,70.2,30.03,West,270,3.8,9.4,60,0.00,,,0.00,WUHU216HW,2013-06-25 15:12:00,
2013-06-25 11:17:00,85.9,70.4,30.03,SSW,203,6.5,9.4,60,0.00,,,0.00,WUHU216HW,2013-06-25 15:17:00,
2013-06-25 11:22:00,86.2,70.7,30.03,WSW,248,4.5,6.5,60,0.00,,,0.00,WUHU216HW,2013-06-25 15:22:00,
2013-06-25 11:27:00,86.8,70.2,30.03,SW,225,4.9,6.5,58,0.00,,,0.00,WUHU216HW,2013-06-25 15:27:00,
2013-06-25 11:32:00,87.1,70.0,30.03,WSW,248,4.9,6.9,57,0.00,,,0.00,WUHU216HW,2013-06-25 15:32:00,
2013-06-25 11:37:00,87.1,70.0,30.03,West,270,5.6,6.9,57,0.00,,,0.00,WUHU216HW,2013-06-25 15:37:00,
2013-06-25 11:42:00,87.1,70.0,30.03,West,270,6.3,7.6,57,0.00,,,0.00,WUHU216HW,2013-06-25 15:42:00,
2013-06-25 11:47:00,86.6,70.6,30.03,WSW,248,3.1,7.6,59,0.00,,,0.00,WUHU216HW,2013-06-25 15:47:00,
2013-06-25 11:52:00,86.4,70.4,30.03,SSW,203,4.7,7.4,59,0.00,,,0.00,WUHU216HW,2013-06-25 15:52:00,
2013-06-25 11:57:00,86.0,70.6,30.03,WSW,248,2.5,7.4,60,0.00,,,0.00,WUHU216HW,2013-06-25 15:57:00,
2013-06-25 12:02:00,86.0,70.6,30.03,SW,225,5.4,6.5,60,0.00,,,0.00,WUHU216HW,2013-06-25 16:02:00,
2013-06-25 12:07:00,86.2,70.7,30.02,WSW,248,2.9,5.4,60,0.00,,,0.00,WUHU216HW,2013-06-25 16:07:00,
2013-06-25 12:12:00,86.4,71.4,30.02,SSW,203,2.5,5.4,61,0.00,,,0.00,WUHU216HW,2013-06-25 16:12:00,
2013-06-25 12:17:00,87.5,72.0,30.02,SW,225,4.7,6.0,60,0.00,,,0.00,WUHU216HW,2013-06-25 16:17:00,
2013-06-25 12:22:00,87.5,72.0,30.02,SW,225,2.7,6.0,60,0.00,,,0.00,WUHU216HW,2013-06-25 16:22:00,
2013-06-25 12:27:00,87.8,71.8,30.01,SW,225,5.1,5.1,59,0.00,,,0.00,WUHU216HW,2013-06-25 16:27:00,
2013-06-25 12:32:00,88.2,71.7,30.01,WSW,248,5.4,5.4,58,0.00,,,0.00,WUHU216HW,2013-06-25 16:32:00,
2013-06-25 12:37:00,89.3,72.0,30.01,SSW,203,5.4,9.2,57,0.00,,,0.00,WUHU216HW,2013-06-25 16:37:00,
2013-06-25 12:42:00,89.8,72.6,30.01,SW,225,3.1,9.2,57,0.00,,,0.00,WUHU216HW,2013-06-25 16:42:00,
2013-06-25 12:47:00,89.8,72.0,30.01,SW,225,4.0,11.4,56,0.00,,,0.00,WUHU216HW,2013-06-25 16:47:00,
2013-06-25 12:52:00,90.2,71.7,30.01,West,270,4.0,11.4,55,0.00,,,0.00,WUHU216HW,2013-06-25 16:52:00,
2013-06-25 12:57:00,90.0,71.1,30.01,WSW,248,4.5,9.4,54,0.00,,,0.00,WUHU216HW,2013-06-25 16:57:00,
2013-06-25 13:02:00,90.4,71.4,30.01,SW,225,2.9,9.4,54,0.00,,,0.00,WUHU216HW,2013-06-25 17:02:00,
2013-06-25 13:07:00,90.9,71.9,30.01,ESE,113,2.2,6.3,54,0.00,,,0.00,WUHU216HW,2013-06-25 17:07:00,
2013-06-25 13:12:00,91.1,72.0,30.01,SSW,203,2.7,8.7,54,0.00,,,0.00,WUHU216HW,2013-06-25 17:12:00,
2013-06-25 13:17:00,91.1,71.5,30.01,SW,225,6.9,10.5,53,0.00,,,0.00,WUHU216HW,2013-06-25 17:17:00,
2013-06-25 13:22:00,90.9,71.4,30.00,WSW,248,5.4,10.5,53,0.00,,,0.00,WUHU216HW,2013-06-25 17:22:00,
2013-06-25 13:27:00,90.5,71.0,30.00,SSW,203,3.1,6.9,53,0.00,,,0.00,WUHU216HW,2013-06-25 17:27:00,
2013-06-25 13:32:00,90.4,71.4,29.99,SSW,203,5.1,6.7,54,0.00,,,0.00,WUHU216HW,2013-06-25 17:32:00,
2013-06-25 13:37:00,90.7,71.2,29.99,South,180,4.3,6.7,53,0.00,,,0.00,WUHU216HW,2013-06-25 17:37:00,
2013-06-25 13:42:00,91.4,71.3,29.98,SW,225,8.1,8.1,52,0.00,,,0.00,WUHU216HW,2013-06-25 17:42:00,
2013-06-25 13:47:00,91.4,70.7,29.98,SW,225,3.8,8.1,51,0.00,,,0.00,WUHU216HW,2013-06-25 17:47:00,
2013-06-25 13:52:00,92.2,71.9,29.98,SSW,203,2.0,8.1,52,0.00,,,0.00,WUHU216HW,2013-06-25 17:52:00,
2013-06-25 13:57:00,92.7,72.5,29.98,SSW,203,2.2,7.2,52,0.00,,,0.00,WUHU216HW,2013-06-25 17:57:00,
2013-06-25 14:02:00,93.2,71.8,29.98,WSW,248,3.1,7.6,50,0.00,,,0.00,WUHU216HW,2013-06-25 18:02:00,
2013-06-25 14:07:00,93.1,71.0,29.98,SW,225,5.4,7.6,49,0.00,,,0.00,WUHU216HW,2013-06-25 18:07:00,
2013-06-25 14:12:00,93.1,71.0,29.98,ESE,113,5.8,7.6,49,0.00,,,0.00,WUHU216HW,2013-06-25 18:12:00,
2013-06-25 14:17:00,93.4,71.4,29.97,WSW,248,8.5,8.5,49,0.00,,,0.00,WUHU216HW,2013-06-25 18:17:00,
2013-06-25 14:22:00,93.1,71.0,29.97,SW,225,7.6,8.5,49,0.00,,,0.00,WUHU216HW,2013-06-25 18:22:00,
2013-06-25 14:27:00,92.9,70.2,29.97,SSW,203,5.6,8.5,48,0.00,,,0.00,WUHU216HW,2013-06-25 18:27:00,
2013-06-25 14:32:00,92.9,70.8,29.96,WNW,293,5.4,7.4,49,0.00,,,0.00,WUHU216HW,2013-06-25 18:32:00,
2013-06-25 14:37:00,92.2,70.2,29.96,SW,225,4.5,7.6,49,0.00,,,0.00,WUHU216HW,2013-06-25 18:37:00,
2013-06-25 14:42:00,92.9,71.5,29.95,SW,225,6.9,7.6,50,0.00,,,0.00,WUHU216HW,2013-06-25 18:42:00,
2013-06-25 14:47:00,93.2,72.4,29.95,SW,225,1.8,6.9,51,0.00,,,0.00,WUHU216HW,2013-06-25 18:47:00,
2013-06-25 14:52:00,93.8,71.0,29.95,SSW,203,4.7,6.9,48,0.00,,,0.00,WUHU216HW,2013-06-25 18:52:00,
2013-06-25 14:57:00,93.2,70.6,29.95,SSW,203,5.4,9.2,48,0.00,,,0.00,WUHU216HW,2013-06-25 18:57:00,
2013-06-25 15:02:00,92.5,69.2,29.95,SW,225,6.0,9.2,47,0.00,,,0.00,WUHU216HW,2013-06-25 19:02:00,
2013-06-25 15:07:00,92.5,70.6,29.95,SSW,203,3.4,8.5,49,0.00,,,0.00,WUHU216HW,2013-06-25 19:07:00,
2013-06-25 15:12:00,92.9,70.2,29.95,SW,225,3.6,8.1,48,0.00,,,0.00,WUHU216HW,2013-06-25 19:12:00,
2013-06-25 15:17:00,92.5,70.6,29.95,NNW,338,2.2,5.8,49,0.00,,,0.00,WUHU216HW,2013-06-25 19:17:00,
2013-06-25 15:22:00,91.1,69.8,29.95,ESE,113,1.6,4.9,50,0.00,,,0.00,WUHU216HW,2013-06-25 19:22:00,
2013-06-25 15:27:00,90.4,70.3,29.95,North,0,2.2,4.0,52,0.00,,,0.00,WUHU216HW,2013-06-25 19:27:00,
2013-06-25 15:32:00,90.2,70.7,29.95,West,270,1.8,5.4,53,0.00,,,0.00,WUHU216HW,2013-06-25 19:32:00,
2013-06-25 15:37:00,90.2,70.7,29.95,SW,225,3.8,5.6,53,0.00,,,0.00,WUHU216HW,2013-06-25 19:37:00,
2013-06-25 15:42:00,90.9,71.4,29.95,WSW,248,5.4,5.6,53,0.00,,,0.00,WUHU216HW,2013-06-25 19:42:00,
2013-06-25 15:47:00,91.4,70.7,29.95,WSW,248,3.1,5.4,51,0.00,,,0.00,WUHU216HW,2013-06-25 19:47:00,
2013-06-25 15:52:00,91.4,71.3,29.95,NE,45,2.7,5.8,52,0.00,,,0.00,WUHU216HW,2013-06-25 19:52:00,
2013-06-25 15:57:00,91.3,71.6,29.95,North,0,1.1,5.8,53,0.00,,,0.00,WUHU216HW,2013-06-25 19:57:00,
2013-06-25 16:02:00,90.9,70.8,29.95,NNE,23,4.3,4.3,52,0.00,,,0.00,WUHU216HW,2013-06-25 20:02:00,
2013-06-25 16:07:00,89.5,70.6,29.95,WSW,248,1.8,4.7,54,0.00,,,0.00,WUHU216HW,2013-06-25 20:07:00,
2013-06-25 16:12:00,88.7,70.5,29.94,SSW,203,1.1,4.7,55,0.00,,,0.00,WUHU216HW,2013-06-25 20:12:00,
2013-06-25 16:17:00,89.6,71.3,29.94,WNW,293,2.7,3.4,55,0.00,,,0.00,WUHU216HW,2013-06-25 20:17:00,
2013-06-25 16:22:00,89.8,71.5,29.94,SW,225,1.8,4.5,55,0.00,,,0.00,WUHU216HW,2013-06-25 20:22:00,
2013-06-25 16:28:00,90.5,72.1,29.93,WSW,248,3.8,4.7,55,0.00,,,0.00,WUHU216HW,2013-06-25 20:28:00,
2013-06-25 16:33:00,90.7,72.3,29.94,SW,225,2.5,4.7,55,0.00,,,0.00,WUHU216HW,2013-06-25 20:33:00,
2013-06-25 16:38:00,89.8,70.9,29.94,SW,225,3.6,4.0,54,0.00,,,0.00,WUHU216HW,2013-06-25 20:38:00,
2013-06-25 16:43:00,88.9,71.2,29.94,SW,225,1.1,4.0,56,0.00,,,0.00,WUHU216HW,2013-06-25 20:43:00,
2013-06-25 16:48:00,89.1,71.9,29.94,WSW,248,2.5,3.6,57,0.00,,,0.00,WUHU216HW,2013-06-25 20:48:00,
2013-06-25 16:53:00,89.1,71.9,29.94,SSW,203,1.1,5.1,57,0.00,,,0.00,WUHU216HW,2013-06-25 20:53:00,
2013-06-25 16:58:00,88.6,71.9,29.94,SSW,203,4.0,5.8,58,0.00,,,0.00,WUHU216HW,2013-06-25 20:58:00,
2013-06-25 17:03:00,88.6,72.5,29.94,SSW,203,1.8,5.8,59,0.00,,,0.00,WUHU216HW,2013-06-25 21:03:00,
2013-06-25 17:08:00,89.5,73.3,29.94,ESE,113,0.9,6.3,59,0.00,,,0.00,WUHU216HW,2013-06-25 21:08:00,
2013-06-25 17:13:00,89.6,72.9,29.94,SSW,203,0.9,6.3,58,0.00,,,0.00,WUHU216HW,2013-06-25 21:13:00,
2013-06-25 17:18:00,89.1,72.5,29.95,East,90,0.7,5.4,58,0.00,,,0.00,WUHU216HW,2013-06-25 21:18:00,
2013-06-25 17:23:00,88.2,71.7,29.94,SE,135,0.7,5.4,58,0.00,,,0.00,WUHU216HW,2013-06-25 21:23:00,
2013-06-25 17:28:00,86.9,70.9,29.93,SE,135,0.4,1.1,59,0.00,,,0.00,WUHU216HW,2013-06-25 21:28:00,
2013-06-25 17:33:00,85.5,70.6,29.94,SW,225,1.3,1.8,61,0.00,,,0.00,WUHU216HW,2013-06-25 21:33:00,
2013-06-25 17:38:00,84.2,70.7,29.94,West,270,1.6,1.8,64,0.00,,,0.00,WUHU216HW,2013-06-25 21:38:00,
2013-06-25 17:43:00,82.6,69.1,29.93,NNW,338,0.4,1.6,64,0.01,,,0.01,WUHU216HW,2013-06-25 21:43:00,
2013-06-25 17:48:00,81.7,69.7,29.94,South,180,0.2,1.8,67,0.01,,,0.01,WUHU216HW,2013-06-25 21:48:00,
2013-06-25 17:53:00,81.4,70.2,29.94,NE,45,1.8,1.8,69,0.01,,,0.01,WUHU216HW,2013-06-25 21:53:00,
2013-06-25 17:58:00,80.5,69.4,29.93,North,0,0.7,1.8,69,0.01,,,0.01,WUHU216HW,2013-06-25 21:58:00,
2013-06-25 18:03:00,79.7,69.1,29.93,SSW,203,0.9,1.8,70,0.01,,,0.01,WUHU216HW,2013-06-25 22:03:00,
2013-06-25 18:08:00,79.4,69.1,29.94,North,0,0.2,1.8,71,0.01,,,0.01,WUHU216HW,2013-06-25 22:08:00,
2013-06-25 18:13:00,79.2,69.8,29.94,SW,225,3.4,3.8,73,0.01,,,0.01,WUHU216HW,2013-06-25 22:13:00,
2013-06-25 18:18:00,79.2,69.8,29.93,SW,225,0.7,3.8,73,0.01,,,0.01,WUHU216HW,2013-06-25 22:18:00,
2013-06-25 18:23:00,79.6,70.6,29.93,SSW,203,1.6,3.4,74,0.01,,,0.01,WUHU216HW,2013-06-25 22:23:00,
2013-06-25 18:28:00,79.9,71.3,29.93,SSW,203,4.0,5.4,75,0.01,,,0.01,WUHU216HW,2013-06-25 22:28:00,
2013-06-25 18:33:00,80.3,70.8,29.92,WSW,248,0.4,5.4,73,0.01,,,0.01,WUHU216HW,2013-06-25 22:33:00,
2013-06-25 18:38:00,81.7,72.6,29.93,SSW,203,1.1,4.0,74,0.01,,,0.01,WUHU216HW,2013-06-25 22:38:00,
2013-06-25 18:43:00,83.5,73.9,29.93,SW,225,1.6,2.2,73,0.00,,,0.01,WUHU216HW,2013-06-25 22:43:00,
2013-06-25 18:48:00,85.0,74.5,29.93,SW,225,1.6,2.2,71,0.00,,,0.01,WUHU216HW,2013-06-25 22:48:00,
2013-06-25 18:53:00,85.9,74.2,29.93,ENE,68,1.8,2.5,68,0.00,,,0.01,WUHU216HW,2013-06-25 22:53:00,
2013-06-25 18:58:00,85.9,73.6,29.94,NE,45,1.1,2.5,67,0.00,,,0.01,WUHU216HW,2013-06-25 22:58:00,
2013-06-25 19:03:00,85.3,73.2,29.94,ENE,68,0.4,2.5,67,0.00,,,0.01,WUHU216HW,2013-06-25 23:03:00,
2013-06-25 19:08:00,85.5,73.8,29.94,NNE,23,0.2,2.5,68,0.00,,,0.01,WUHU216HW,2013-06-25 23:08:00,
2013-06-25 19:13:00,86.0,73.8,29.94,East,90,1.8,2.5,67,0.00,,,0.01,WUHU216HW,2013-06-25 23:13:00,
2013-06-25 19:18:00,85.7,73.5,29.93,ENE,68,1.1,3.4,67,0.00,,,0.01,WUHU216HW,2013-06-25 23:18:00,
2013-06-25 19:23:00,85.0,73.3,29.93,ESE,113,0.9,3.4,68,0.00,,,0.01,WUHU216HW,2013-06-25 23:23:00,
2013-06-25 19:28:00,84.6,72.9,29.93,NNW,338,0.4,1.8,68,0.00,,,0.01,WUHU216HW,2013-06-25 23:28:00,
2013-06-25 19:33:00,84.1,72.8,29.93,WSW,248,0.2,1.8,69,0.00,,,0.01,WUHU216HW,2013-06-25 23:33:00,
2013-06-25 19:38:00,83.9,72.6,29.93,SW,225,0.9,1.3,69,0.00,,,0.01,WUHU216HW,2013-06-25 23:38:00,
2013-06-25 19:43:00,83.5,72.3,29.93,SSW,203,0.7,2.0,69,0.00,,,0.01,WUHU216HW,2013-06-25 23:43:00,
2013-06-25 19:48:00,83.2,71.9,29.94,SW,225,0.4,2.0,69,0.00,,,0.01,WUHU216HW,2013-06-25 23:48:00,
2013-06-25 19:53:00,82.6,71.4,29.94,SW,225,0.2,1.6,69,0.00,,,0.01,WUHU216HW,2013-06-25 23:53:00,
2013-06-25 19:58:00,82.1,70.8,29.94,SW,225,1.6,2.0,69,0.00,,,0.01,WUHU216HW,2013-06-25 23:58:00,
2013-06-25 20:03:00,81.2,70.5,29.93,SSW,203,2.2,4.0,70,0.00,,,0.01,WUHU216HW,2013-06-26 00:03:00,
2013-06-25 20:08:00,80.3,70.0,29.93,SSW,203,2.5,4.0,71,0.00,,,0.01,WUHU216HW,2013-06-26 00:08:00,
2013-06-25 20:13:00,79.7,69.5,29.93,SSW,203,0.4,4.0,71,0.00,,,0.01,WUHU216HW,2013-06-26 00:13:00,
2013-06-25 20:18:00,79.4,69.6,29.93,SW,225,0.2,3.1,72,0.00,,,0.01,WUHU216HW,2013-06-26 00:18:00,
2013-06-25 20:23:00,78.8,69.0,29.93,NW,315,0.2,3.1,72,0.00,,,0.01,WUHU216HW,2013-06-26 00:23:00,
2013-06-25 20:28:00,78.5,69.0,29.93,SW,225,1.8,1.8,73,0.00,,,0.01,WUHU216HW,2013-06-26 00:28:00,
2013-06-25 20:33:00,78.5,69.5,29.93,SW,225,1.1,1.8,74,0.00,,,0.01,WUHU216HW,2013-06-26 00:33:00,
2013-06-25 20:38:00,77.9,69.3,29.94,ENE,68,1.1,1.8,75,0.00,,,0.01,WUHU216HW,2013-06-26 00:38:00,
2013-06-25 20:43:00,77.4,68.9,29.94,ENE,68,0.4,1.6,75,0.00,,,0.01,WUHU216HW,2013-06-26 00:43:00,
2013-06-25 20:48:00,77.2,68.7,29.94,SSW,203,0.4,1.6,75,0.00,,,0.01,WUHU216HW,2013-06-26 00:48:00,
2013-06-25 20:53:00,77.0,68.5,29.94,SSW,203,0.7,1.1,75,0.00,,,0.01,WUHU216HW,2013-06-26 00:53:00,
2013-06-25 20:58:00,77.0,68.5,29.94,SSW,203,0.9,1.1,75,0.00,,,0.01,WUHU216HW,2013-06-26 00:58:00,
2013-06-25 21:03:00,76.7,68.1,29.94,South,180,0.0,2.5,75,0.00,,,0.01,WUHU216HW,2013-06-26 01:03:00,
2013-06-25 21:08:00,76.3,68.2,29.94,SSW,203,0.2,2.5,76,0.00,,,0.01,WUHU216HW,2013-06-26 01:08:00,
2013-06-25 21:13:00,76.0,68.2,29.94,West,270,0.0,0.9,77,0.00,,,0.01,WUHU216HW,2013-06-26 01:13:00,
2013-06-25 21:18:00,75.6,68.3,29.95,East,90,0.7,1.3,78,0.00,,,0.01,WUHU216HW,2013-06-26 01:18:00,
2013-06-25 21:23:00,75.1,67.8,29.94,ENE,68,0.0,1.3,78,0.00,,,0.01,WUHU216HW,2013-06-26 01:23:00,
2013-06-25 21:28:00,74.7,67.4,29.94,ENE,68,0.0,1.1,78,0.00,,,0.01,WUHU216HW,2013-06-26 01:28:00,
2013-06-25 21:34:00,74.5,68.0,29.94,ENE,68,1.6,1.6,80,0.00,,,0.01,WUHU216HW,2013-06-26 01:34:00,
2013-06-25 21:39:00,74.0,67.9,29.95,NE,45,0.4,2.5,81,0.00,,,0.01,WUHU216HW,2013-06-26 01:39:00,
2013-06-25 21:44:00,73.6,67.9,29.95,ESE,113,1.8,2.5,82,0.00,,,0.01,WUHU216HW,2013-06-26 01:44:00,
2013-06-25 21:49:00,73.4,67.7,29.95,ENE,68,0.4,1.8,82,0.00,,,0.01,WUHU216HW,2013-06-26 01:49:00,
2013-06-25 21:54:00,73.3,67.8,29.95,East,90,0.2,1.8,83,0.00,,,0.01,WUHU216HW,2013-06-26 01:54:00,
2013-06-25 21:59:00,73.1,67.6,29.95,ENE,68,0.2,1.1,83,0.00,,,0.01,WUHU216HW,2013-06-26 01:59:00,
2013-06-25 22:04:00,72.9,67.4,29.95,ENE,68,0.0,1.1,83,0.00,,,0.01,WUHU216HW,2013-06-26 02:04:00,
2013-06-25 22:09:00,73.1,67.6,29.96,SSE,158,0.0,0.4,83,0.00,,,0.01,WUHU216HW,2013-06-26 02:09:00,
2013-06-25 22:14:00,72.9,67.4,29.96,SSW,203,1.3,1.3,83,0.00,,,0.01,WUHU216HW,2013-06-26 02:14:00,
2013-06-25 22:19:00,72.9,67.4,29.95,SSW,203,0.0,1.3,83,0.00,,,0.01,WUHU216HW,2013-06-26 02:19:00,
2013-06-25 22:24:00,72.7,67.0,29.95,SSW,203,0.4,1.3,82,0.00,,,0.01,WUHU216HW,2013-06-26 02:24:00,
2013-06-25 22:29:00,72.5,67.1,29.94,SSW,203,0.0,0.9,83,0.00,,,0.01,WUHU216HW,2013-06-26 02:29:00,
2013-06-25 22:34:00,72.4,66.9,29.94,SSW,203,0.0,0.7,83,0.00,,,0.01,WUHU216HW,2013-06-26 02:34:00,
2013-06-25 22:39:00,72.4,66.9,29.94,SSW,203,0.4,0.4,83,0.00,,,0.01,WUHU216HW,2013-06-26 02:39:00,
2013-06-25 22:44:00,72.2,66.7,29.94,SSW,203,0.7,1.3,83,0.00,,,0.01,WUHU216HW,2013-06-26 02:44:00,
2013-06-25 22:49:00,72.0,66.9,29.95,SSW,203,1.1,1.3,84,0.00,,,0.01,WUHU216HW,2013-06-26 02:49:00,
2013-06-25 22:54:00,72.0,66.9,29.95,SSW,203,0.4,1.6,84,0.00,,,0.01,WUHU216HW,2013-06-26 02:54:00,
2013-06-25 22:59:00,72.0,66.9,29.95,SSW,203,0.0,1.6,84,0.00,,,0.01,WUHU216HW,2013-06-26 02:59:00,
2013-06-25 23:04:00,71.8,66.7,29.95,SSW,203,0.0,0.4,84,0.00,,,0.01,WUHU216HW,2013-06-26 03:04:00,
2013-06-25 23:09:00,71.8,66.7,29.95,SSW,203,0.0,0.0,84,0.00,,,0.01,WUHU216HW,2013-06-26 03:09:00,
2013-06-25 23:14:00,71.6,66.5,29.95,SSW,203,0.0,0.0,84,0.00,,,0.01,WUHU216HW,2013-06-26 03:14:00,
2013-06-25 23:19:00,71.6,66.5,29.95,SSW,203,0.0,0.0,84,0.00,,,0.01,WUHU216HW,2013-06-26 03:19:00,
2013-06-25 23:24:00,71.6,66.5,29.95,SSW,203,0.0,0.0,84,0.00,,,0.01,WUHU216HW,2013-06-26 03:24:00,
2013-06-25 23:29:00,71.5,66.3,29.94,SSW,203,0.0,0.0,84,0.00,,,0.01,WUHU216HW,2013-06-26 03:29:00,
2013-06-25 23:34:00,71.5,66.3,29.94,SSW,203,0.0,0.0,84,0.00,,,0.01,WUHU216HW,2013-06-26 03:34:00,
2013-06-25 23:39:00,71.3,66.5,29.94,SSW,203,0.0,0.0,85,0.00,,,0.01,WUHU216HW,2013-06-26 03:39:00,
2013-06-25 23:44:00,71.3,66.5,29.94,SSW,203,0.0,0.0,85,0.00,,,0.01,WUHU216HW,2013-06-26 03:44:00,
2013-06-25 23:49:00,71.1,66.7,29.94,SSE,158,0.4,0.9,86,0.00,,,0.01,WUHU216HW,2013-06-26 03:49:00,
2013-06-25 23:54:00,71.1,66.7,29.94,ESE,113,0.9,0.9,86,0.00,,,0.01,WUHU216HW,2013-06-26 03:54:00,
2013-06-25 23:59:00,70.9,66.5,29.94,ESE,113,0.0,0.9,86,0.00,,,0.01,WUHU216HW,2013-06-26 03:59:00,